createdAt,value
2023-01-31T00:01:07.126Z,3.76
2023-01-31T00:03:33.735Z,3.73
2023-01-31T00:06:09.337Z,3.72
2023-01-31T00:08:36.053Z,3.67
2023-01-31T00:11:02.346Z,3.63
2023-01-31T00:13:28.628Z,3.63
2023-01-31T00:15:58.057Z,3.62
2023-01-31T00:18:24.387Z,3.59
2023-01-31T00:20:50.668Z,3.58
2023-01-31T00:23:18.650Z,3.52
2023-01-31T00:25:45.029Z,3.53
2023-01-31T00:28:11.393Z,3.43
2023-01-31T00:30:38.206Z,3.44
2023-01-31T00:33:04.474Z,3.48
2023-01-31T00:35:30.829Z,3.44
2023-01-31T00:37:57.133Z,3.38
2023-01-31T00:40:23.476Z,3.35
2023-01-31T00:42:49.786Z,3.34
2023-01-31T00:45:16.299Z,3.33
2023-01-31T00:47:42.631Z,3.32
2023-01-31T00:50:09.985Z,3.30
2023-01-31T00:52:36.865Z,3.21
2023-01-31T00:55:03.432Z,3.17
2023-01-31T00:57:29.693Z,3.16
2023-01-31T00:59:56.099Z,3.15
2023-01-31T01:02:22.408Z,3.13
2023-01-31T01:04:49.209Z,3.15
2023-01-31T01:07:15.546Z,3.12
2023-01-31T01:09:41.870Z,3.12
2023-01-31T01:12:08.183Z,3.11
2023-01-31T01:14:34.745Z,3.11
2023-01-31T01:17:01.386Z,3.08
2023-01-31T01:19:27.703Z,3.05
2023-01-31T01:21:54.895Z,3.04
2023-01-31T01:24:21.199Z,3.06
2023-01-31T01:26:47.830Z,3.06
2023-01-31T01:29:14.455Z,3.07
2023-01-31T01:31:40.913Z,3.07
2023-01-31T01:34:11.602Z,3.06
2023-01-31T01:36:38.377Z,3.03
2023-01-31T01:39:06.119Z,3.01
2023-01-31T01:41:36.258Z,3.01
2023-01-31T01:44:04.181Z,2.98
2023-01-31T01:46:30.572Z,2.98
2023-01-31T01:49:00.982Z,2.97
2023-01-31T01:51:28.601Z,2.95
2023-01-31T01:53:56.741Z,2.95
2023-01-31T01:56:25.157Z,2.89
2023-01-31T01:59:12.683Z,2.89
2023-01-31T02:01:39.428Z,2.89
2023-01-31T02:04:07.744Z,2.86
2023-01-31T02:06:34.112Z,2.89
2023-01-31T02:09:00.556Z,2.88
2023-01-31T02:11:29.741Z,2.88
2023-01-31T02:13:59.302Z,2.87
2023-01-31T02:16:25.743Z,2.89
2023-01-31T02:18:52.573Z,2.88
2023-01-31T02:21:28.269Z,2.85
2023-01-31T02:24:00.956Z,2.90
2023-01-31T02:26:46.130Z,2.89
2023-01-31T02:29:15.263Z,2.94
2023-01-31T02:31:50.780Z,2.94
2023-01-31T02:34:38.263Z,2.95
2023-01-31T02:37:20.942Z,2.95
2023-01-31T02:39:57.739Z,3.00
2023-01-31T02:42:32.884Z,3.02
2023-01-31T02:45:04.425Z,3.00
2023-01-31T02:47:40.761Z,3.01
2023-01-31T02:50:12.811Z,3.05
2023-01-31T02:52:45.981Z,3.07
2023-01-31T02:55:33.880Z,3.13
2023-01-31T02:58:02.272Z,3.14
2023-01-31T03:00:29.561Z,3.15
2023-01-31T03:02:56.417Z,3.21
2023-01-31T03:05:23.946Z,3.22
2023-01-31T03:07:52.782Z,3.22
2023-01-31T03:10:25.269Z,3.25
2023-01-31T03:13:09.651Z,3.27
2023-01-31T03:16:24.204Z,3.31
2023-01-31T03:18:53.452Z,3.31
2023-01-31T03:21:24.072Z,3.35
2023-01-31T03:23:51.662Z,3.38
2023-01-31T03:26:20.738Z,3.38
2023-01-31T03:28:48.198Z,3.38
2023-01-31T03:31:18.997Z,3.44
2023-01-31T03:33:47.605Z,3.49
2023-01-31T03:36:19.758Z,3.48
2023-01-31T03:38:56.187Z,3.52
2023-01-31T03:41:25.850Z,3.55
2023-01-31T03:44:11.705Z,3.57
2023-01-31T03:46:40.995Z,3.61
2023-01-31T03:49:09.215Z,3.62
2023-01-31T03:51:37.415Z,3.67
2023-01-31T03:54:09.434Z,3.64
2023-01-31T03:56:42.849Z,3.69
2023-01-31T03:59:14.190Z,3.73
2023-01-31T04:01:43.011Z,3.73
2023-01-31T04:04:16.021Z,3.73
2023-01-31T04:06:42.311Z,3.77
2023-01-31T04:09:08.693Z,3.74
2023-01-31T04:11:39.311Z,3.77
2023-01-31T04:14:05.976Z,3.78
2023-01-31T04:16:32.530Z,3.80
2023-01-31T04:18:59.139Z,3.75
2023-01-31T04:21:25.413Z,3.76
2023-01-31T04:23:51.773Z,3.77
2023-01-31T04:26:18.101Z,3.73
2023-01-31T04:28:44.455Z,3.76
2023-01-31T04:31:10.890Z,3.72
2023-01-31T04:33:37.332Z,3.71
2023-01-31T04:36:03.838Z,3.73
2023-01-31T04:38:30.122Z,3.73
2023-01-31T04:40:56.424Z,3.70
2023-01-31T04:43:22.661Z,3.74
2023-01-31T04:45:49.300Z,3.73
2023-01-31T04:48:15.567Z,3.73
2023-01-31T04:50:41.891Z,3.81
2023-01-31T04:53:09.338Z,3.81
2023-01-31T04:55:36.435Z,3.80
2023-01-31T04:58:04.392Z,3.80
2023-01-31T05:00:31.939Z,3.82
2023-01-31T05:02:58.445Z,3.81
2023-01-31T05:05:24.821Z,3.80
2023-01-31T05:07:51.198Z,3.78
2023-01-31T05:10:18.188Z,3.78
2023-01-31T05:12:45.178Z,3.76
2023-01-31T05:15:11.825Z,3.75
2023-01-31T05:17:38.326Z,3.79
2023-01-31T05:20:05.439Z,3.75
2023-01-31T05:22:31.852Z,3.74
2023-01-31T05:24:58.696Z,3.75
2023-01-31T05:27:25.479Z,3.78
2023-01-31T05:29:52.222Z,3.81
2023-01-31T05:32:19.816Z,3.83
2023-01-31T05:34:46.124Z,3.85
2023-01-31T05:37:12.679Z,3.89
2023-01-31T05:39:39.139Z,3.90
2023-01-31T05:42:05.419Z,3.86
2023-01-31T05:44:32.579Z,3.86
2023-01-31T05:47:01.386Z,3.89
2023-01-31T05:49:33.147Z,3.94
2023-01-31T05:52:00.668Z,3.86
2023-01-31T05:54:27.148Z,3.91
2023-01-31T05:56:53.379Z,3.90
2023-01-31T05:59:19.623Z,3.94
2023-01-31T06:01:46.116Z,3.89
2023-01-31T06:04:12.547Z,3.87
2023-01-31T06:06:38.848Z,3.90
2023-01-31T06:09:05.153Z,3.88
2023-01-31T06:11:31.946Z,3.89
2023-01-31T06:13:58.879Z,3.90
2023-01-31T06:16:25.626Z,3.93
2023-01-31T06:18:52.100Z,3.94
2023-01-31T06:21:18.495Z,3.97
2023-01-31T06:23:46.222Z,3.92
2023-01-31T06:26:12.841Z,3.92
2023-01-31T06:28:39.152Z,3.92
2023-01-31T06:31:09.175Z,3.90
2023-01-31T06:33:46.016Z,3.93
2023-01-31T06:36:13.723Z,3.95
2023-01-31T06:38:40.068Z,3.91
2023-01-31T06:41:06.392Z,3.95
2023-01-31T06:43:32.951Z,3.94
2023-01-31T06:45:59.301Z,3.95
2023-01-31T06:48:25.641Z,4.02
2023-01-31T06:50:52.058Z,3.99
2023-01-31T06:53:18.424Z,3.99
2023-01-31T06:55:44.728Z,3.99
2023-01-31T06:58:11.100Z,3.98
2023-01-31T07:00:37.396Z,4.03
2023-01-31T07:03:03.712Z,4.02
2023-01-31T07:05:30.531Z,4.08
2023-01-31T07:07:57.039Z,4.10
2023-01-31T07:10:23.322Z,4.12
2023-01-31T07:12:49.627Z,4.15
2023-01-31T07:15:15.903Z,4.09
2023-01-31T07:17:44.063Z,4.13
2023-01-31T07:20:10.963Z,4.13
2023-01-31T07:22:37.321Z,4.12
2023-01-31T07:25:03.786Z,4.16
2023-01-31T07:27:30.167Z,4.16
2023-01-31T07:29:56.418Z,4.18
2023-01-31T07:32:22.691Z,4.20
2023-01-31T07:34:49.815Z,4.23
2023-01-31T07:37:16.142Z,4.21
2023-01-31T07:39:42.459Z,4.22
2023-01-31T07:42:08.748Z,4.21
2023-01-31T07:44:35.002Z,4.21
2023-01-31T07:47:01.343Z,4.21
2023-01-31T07:49:27.678Z,4.24
2023-01-31T07:51:53.960Z,4.24
2023-01-31T07:54:20.284Z,4.26
2023-01-31T07:56:46.781Z,4.25
2023-01-31T07:59:14.023Z,4.29
2023-01-31T08:01:58.901Z,4.30
2023-01-31T08:04:25.209Z,4.30
2023-01-31T08:06:54.190Z,4.34
2023-01-31T08:09:20.635Z,4.35
2023-01-31T08:11:47.301Z,4.32
2023-01-31T08:14:13.871Z,4.38
2023-01-31T08:16:40.190Z,4.34
2023-01-31T08:19:06.594Z,4.42
2023-01-31T08:21:33.089Z,4.44
2023-01-31T08:23:59.782Z,4.43
2023-01-31T08:26:26.169Z,4.45
2023-01-31T08:28:56.037Z,4.41
2023-01-31T08:31:24.292Z,4.45
2023-01-31T08:33:52.962Z,4.46
2023-01-31T08:36:20.655Z,4.46
2023-01-31T08:38:47.345Z,4.46
2023-01-31T08:41:13.944Z,4.49
2023-01-31T08:43:54.083Z,4.55
2023-01-31T08:46:21.766Z,4.56
2023-01-31T08:48:48.074Z,4.56
2023-01-31T08:51:14.740Z,4.58
2023-01-31T08:53:43.608Z,4.64
2023-01-31T08:56:10.899Z,4.70
2023-01-31T08:58:38.305Z,4.75
2023-01-31T09:01:08.954Z,4.81
2023-01-31T09:03:35.275Z,4.79
2023-01-31T09:06:02.539Z,4.83
2023-01-31T09:08:30.205Z,4.83
2023-01-31T09:10:57.474Z,4.86
2023-01-31T09:13:24.458Z,4.91
2023-01-31T09:16:04.411Z,4.90
2023-01-31T09:18:31.046Z,4.99
2023-01-31T09:21:02.716Z,4.91
2023-01-31T09:23:29.121Z,4.95
2023-01-31T09:25:56.255Z,5.02
2023-01-31T09:28:23.058Z,5.02
2023-01-31T09:30:49.891Z,4.97
2023-01-31T09:33:16.560Z,4.98
2023-01-31T09:35:42.905Z,5.02
2023-01-31T09:38:09.233Z,5.02
2023-01-31T09:40:38.547Z,5.10
2023-01-31T09:43:05.755Z,5.09
2023-01-31T09:45:33.397Z,5.15
2023-01-31T09:48:00.996Z,5.14
2023-01-31T09:50:33.260Z,5.21
2023-01-31T09:52:59.717Z,5.19
2023-01-31T09:55:26.024Z,5.15
2023-01-31T09:58:04.448Z,5.15
2023-01-31T10:00:30.865Z,5.22
2023-01-31T10:03:06.247Z,5.22
2023-01-31T10:05:48.851Z,5.23
2023-01-31T10:08:21.403Z,5.24
2023-01-31T10:10:52.413Z,5.24
2023-01-31T10:13:22.861Z,5.28
2023-01-31T10:16:02.916Z,5.28
2023-01-31T10:18:32.577Z,5.24
2023-01-31T10:21:05.311Z,5.22
2023-01-31T10:23:37.251Z,5.33
2023-01-31T10:26:04.905Z,5.41
2023-01-31T10:28:42.982Z,5.40
2023-01-31T10:31:28.166Z,5.42
2023-01-31T10:33:54.518Z,5.46
2023-01-31T10:36:27.934Z,5.47
2023-01-31T10:38:57.766Z,5.55
2023-01-31T10:41:47.543Z,5.57
2023-01-31T10:44:20.749Z,5.64
2023-01-31T10:46:47.599Z,5.66
2023-01-31T10:49:13.936Z,5.69
2023-01-31T10:51:58.348Z,5.69
2023-01-31T10:54:33.485Z,5.75
2023-01-31T10:57:00.263Z,5.79
2023-01-31T10:59:32.460Z,5.80
2023-01-31T11:01:59.595Z,5.87
2023-01-31T11:04:26.143Z,5.88
2023-01-31T11:06:53.052Z,5.88
2023-01-31T11:09:22.008Z,5.91
2023-01-31T11:11:59.717Z,5.95
2023-01-31T11:14:26.391Z,6.06
2023-01-31T11:17:16.255Z,6.13
2023-01-31T11:19:47.858Z,6.18
2023-01-31T11:22:29.703Z,6.24
2023-01-31T11:24:56.851Z,6.28
2023-01-31T11:27:27.733Z,6.33
2023-01-31T11:29:59.882Z,6.39
2023-01-31T11:32:31.971Z,6.40
2023-01-31T11:35:05.782Z,6.39
2023-01-31T11:37:34.710Z,6.41
2023-01-31T11:40:03.020Z,6.44
2023-01-31T11:42:29.461Z,6.43
2023-01-31T11:45:00.403Z,6.51
2023-01-31T11:47:45.921Z,6.49
2023-01-31T11:50:21.168Z,6.53
2023-01-31T11:52:53.831Z,6.54
2023-01-31T11:55:20.330Z,6.56
2023-01-31T11:57:46.639Z,6.58
2023-01-31T12:00:19.763Z,6.64
2023-01-31T12:02:49.628Z,6.62
2023-01-31T12:05:17.451Z,6.57
2023-01-31T12:07:50.238Z,6.57
2023-01-31T12:10:33.757Z,6.60
2023-01-31T12:13:16.740Z,6.60
2023-01-31T12:15:56.962Z,6.56
2023-01-31T12:18:38.814Z,6.53
2023-01-31T12:21:05.156Z,6.46
2023-01-31T12:23:39.497Z,6.48
2023-01-31T12:26:17.372Z,6.49
2023-01-31T12:28:43.846Z,6.53
2023-01-31T12:31:16.004Z,6.45
2023-01-31T12:34:00.156Z,6.49
2023-01-31T12:36:37.260Z,6.48
2023-01-31T12:39:04.332Z,6.49
2023-01-31T12:41:41.384Z,6.51
2023-01-31T12:44:16.349Z,6.56
2023-01-31T12:47:10.605Z,6.54
2023-01-31T12:49:46.391Z,6.53
2023-01-31T12:52:18.860Z,6.51
2023-01-31T12:54:54.736Z,6.54
2023-01-31T12:57:39.873Z,6.57
2023-01-31T13:00:32.800Z,6.52
2023-01-31T13:03:08.974Z,6.54
2023-01-31T13:05:51.948Z,6.60
2023-01-31T13:08:21.382Z,6.61
2023-01-31T13:10:50.771Z,6.68
2023-01-31T13:13:21.468Z,6.69
2023-01-31T13:15:50.363Z,6.73
2023-01-31T13:18:17.304Z,6.77
2023-01-31T13:20:50.138Z,6.76
2023-01-31T13:23:23.330Z,6.74
2023-01-31T13:25:52.851Z,6.80
2023-01-31T13:28:21.748Z,6.81
2023-01-31T13:30:51.743Z,6.83
2023-01-31T13:33:23.788Z,6.82
2023-01-31T13:36:10.521Z,6.86
2023-01-31T13:38:42.140Z,6.84
2023-01-31T13:41:13.002Z,6.93
2023-01-31T13:43:39.662Z,6.96
2023-01-31T13:46:07.704Z,7.00
2023-01-31T13:48:38.081Z,6.99
2023-01-31T13:51:17.827Z,7.00
2023-01-31T13:53:47.411Z,7.02
2023-01-31T13:56:18.600Z,7.01
2023-01-31T13:58:47.696Z,7.05
2023-01-31T14:01:19.554Z,7.08
2023-01-31T14:04:04.711Z,7.11
2023-01-31T14:06:49.953Z,7.18
2023-01-31T14:09:26.866Z,7.18
2023-01-31T14:11:55.692Z,7.23
2023-01-31T14:14:41.459Z,7.26
2023-01-31T14:17:14.673Z,7.28
2023-01-31T14:19:46.447Z,7.32
2023-01-31T14:22:16.959Z,7.32
2023-01-31T14:25:00.225Z,7.35
2023-01-31T14:27:50.126Z,7.40
2023-01-31T14:30:23.274Z,7.40
2023-01-31T14:33:01.797Z,7.41
2023-01-31T14:35:51.587Z,7.43
2023-01-31T14:38:34.754Z,7.48
2023-01-31T14:41:07.393Z,7.51
2023-01-31T14:43:59.971Z,7.49
2023-01-31T14:46:51.439Z,7.55
2023-01-31T14:49:50.248Z,7.53
2023-01-31T14:52:36.851Z,7.59
2023-01-31T14:55:22.728Z,7.64
2023-01-31T14:57:51.631Z,7.71
2023-01-31T15:00:23.663Z,7.74
2023-01-31T15:02:56.772Z,7.75
2023-01-31T15:05:38.570Z,7.80
2023-01-31T15:08:04.868Z,7.80
2023-01-31T15:10:49.698Z,7.83
2023-01-31T15:13:36.930Z,7.82
2023-01-31T15:16:04.977Z,7.83
2023-01-31T15:18:31.372Z,7.89
2023-01-31T15:21:00.559Z,7.92
2023-01-31T15:23:29.788Z,7.94
2023-01-31T15:25:56.880Z,7.94
2023-01-31T15:28:26.242Z,7.97
2023-01-31T15:30:53.568Z,7.99
2023-01-31T15:33:26.702Z,7.94
2023-01-31T15:36:01.654Z,7.98
2023-01-31T15:38:30.721Z,8.01
2023-01-31T15:41:16.654Z,7.99
2023-01-31T15:43:42.997Z,8.02
2023-01-31T15:46:28.806Z,8.07
2023-01-31T15:48:55.355Z,8.11
2023-01-31T15:51:21.779Z,8.11
2023-01-31T15:53:48.588Z,8.16
2023-01-31T15:56:17.120Z,8.17
2023-01-31T15:58:46.384Z,8.16
2023-01-31T16:01:15.104Z,8.16
2023-01-31T16:03:48.049Z,8.15
2023-01-31T16:06:21.228Z,8.16
2023-01-31T16:08:51.736Z,8.18
2023-01-31T16:11:18.556Z,8.17
2023-01-31T16:13:45.729Z,8.18
2023-01-31T16:16:15.562Z,8.16
2023-01-31T16:18:45.156Z,8.17
2023-01-31T16:21:27.052Z,8.17
2023-01-31T16:24:00.903Z,8.16
2023-01-31T16:26:29.716Z,8.14
2023-01-31T16:28:58.515Z,8.14
2023-01-31T16:31:26.620Z,8.12
2023-01-31T16:33:55.284Z,8.11
2023-01-31T16:36:26.316Z,8.14
2023-01-31T16:38:58.326Z,8.09
2023-01-31T16:41:40.177Z,8.07
2023-01-31T16:44:12.100Z,8.06
2023-01-31T16:46:39.583Z,8.06
2023-01-31T16:49:07.271Z,8.03
2023-01-31T16:51:39.947Z,8.05
2023-01-31T16:54:17.587Z,8.08
2023-01-31T16:56:48.471Z,8.07
2023-01-31T16:59:32.894Z,8.05
2023-01-31T17:02:05.308Z,8.07
2023-01-31T17:04:31.800Z,8.06
2023-01-31T17:07:02.759Z,8.06
2023-01-31T17:09:29.311Z,8.00
2023-01-31T17:11:56.031Z,7.96
2023-01-31T17:14:22.742Z,7.95
2023-01-31T17:16:52.898Z,7.92
2023-01-31T17:19:19.208Z,7.87
2023-01-31T17:21:45.713Z,7.84
2023-01-31T17:24:13.572Z,7.80
2023-01-31T17:26:39.953Z,7.76
2023-01-31T17:29:06.353Z,7.72
2023-01-31T17:31:32.750Z,7.67
2023-01-31T17:33:59.123Z,7.58
2023-01-31T17:36:25.492Z,7.59
2023-01-31T17:38:53.087Z,7.56
2023-01-31T17:41:20.506Z,7.53
2023-01-31T17:43:46.800Z,7.50
2023-01-31T17:46:14.613Z,7.48
2023-01-31T17:48:41.337Z,7.40
2023-01-31T17:51:08.121Z,7.36
2023-01-31T17:53:44.101Z,7.33
2023-01-31T17:56:15.769Z,7.30
2023-01-31T17:58:42.107Z,7.27
2023-01-31T18:01:09.694Z,7.22
2023-01-31T18:03:36.007Z,7.15
2023-01-31T18:06:03.388Z,7.10
2023-01-31T18:08:29.698Z,7.03
2023-01-31T18:10:56.064Z,7.01
2023-01-31T18:13:22.395Z,6.95
2023-01-31T18:15:48.756Z,6.91
2023-01-31T18:18:15.048Z,6.87
2023-01-31T18:20:46.912Z,6.85
2023-01-31T18:23:13.267Z,6.82
2023-01-31T18:25:39.851Z,6.80
2023-01-31T18:28:06.207Z,6.68
2023-01-31T18:30:32.568Z,6.63
2023-01-31T18:32:59.035Z,6.62
2023-01-31T18:35:25.408Z,6.60
2023-01-31T18:37:51.754Z,6.57
2023-01-31T18:40:18.154Z,6.53
2023-01-31T18:42:44.498Z,6.49
2023-01-31T18:45:10.988Z,6.47
2023-01-31T18:47:37.279Z,6.47
2023-01-31T18:50:04.735Z,6.47
2023-01-31T18:52:31.191Z,6.44
2023-01-31T18:54:57.477Z,6.37
2023-01-31T18:57:23.963Z,6.34
2023-01-31T18:59:50.291Z,6.37
2023-01-31T19:02:16.590Z,6.40
2023-01-31T19:04:43.167Z,6.34
2023-01-31T19:07:09.416Z,6.26
2023-01-31T19:09:35.662Z,6.28
2023-01-31T19:12:02.089Z,6.24
2023-01-31T19:14:28.347Z,6.20
2023-01-31T19:16:55.790Z,6.20
2023-01-31T19:19:22.115Z,6.19
2023-01-31T19:21:48.397Z,6.14
2023-01-31T19:24:15.402Z,6.17
2023-01-31T19:26:42.230Z,6.15
2023-01-31T19:29:11.373Z,6.12
2023-01-31T19:31:37.797Z,6.12
2023-01-31T19:34:06.229Z,6.06
2023-01-31T19:36:34.448Z,6.05
2023-01-31T19:39:01.606Z,6.04
2023-01-31T19:41:28.552Z,5.98
2023-01-31T19:43:55.838Z,5.97
2023-01-31T19:46:23.436Z,5.96
2023-01-31T19:48:49.746Z,5.96
2023-01-31T19:51:17.679Z,5.95
2023-01-31T19:53:46.193Z,5.93
2023-01-31T19:56:12.812Z,5.91
2023-01-31T19:58:39.078Z,5.87
2023-01-31T20:01:12.264Z,5.90
2023-01-31T20:03:39.222Z,5.83
2023-01-31T20:06:07.885Z,5.80
2023-01-31T20:08:35.324Z,5.78
2023-01-31T20:11:02.159Z,5.77
2023-01-31T20:13:28.833Z,5.72
2023-01-31T20:15:58.320Z,5.68
2023-01-31T20:18:25.332Z,5.69
2023-01-31T20:20:52.221Z,5.71
2023-01-31T20:23:18.776Z,5.67
2023-01-31T20:25:47.481Z,5.65
2023-01-31T20:28:13.775Z,5.65
2023-01-31T20:30:40.122Z,5.64
2023-01-31T20:33:06.539Z,5.66
2023-01-31T20:35:32.863Z,5.64
2023-01-31T20:37:59.210Z,5.61
2023-01-31T20:40:25.492Z,5.63
2023-01-31T20:42:52.088Z,5.60
2023-01-31T20:45:18.368Z,5.57
2023-01-31T20:47:44.717Z,5.54
2023-01-31T20:50:10.991Z,5.52
2023-01-31T20:52:37.222Z,5.45
2023-01-31T20:55:03.638Z,5.48
2023-01-31T20:57:29.960Z,5.44
2023-01-31T20:59:56.288Z,5.39
2023-01-31T21:02:22.693Z,5.35
2023-01-31T21:04:48.982Z,5.33
2023-01-31T21:07:15.322Z,5.35
2023-01-31T21:09:41.661Z,5.31
2023-01-31T21:12:08.004Z,5.29
2023-01-31T21:14:34.325Z,5.28
2023-01-31T21:17:00.671Z,5.26
2023-01-31T21:19:26.944Z,5.25
2023-01-31T21:21:53.194Z,5.25
2023-01-31T21:24:19.515Z,5.24
2023-01-31T21:26:45.795Z,5.21
2023-01-31T21:29:12.059Z,5.19
2023-01-31T21:31:38.524Z,5.17
2023-01-31T21:34:06.525Z,5.14
2023-01-31T21:36:34.028Z,5.11
2023-01-31T21:39:00.644Z,5.13
2023-01-31T21:41:45.809Z,5.08
2023-01-31T21:44:12.059Z,5.06
2023-01-31T21:46:38.328Z,5.04
2023-01-31T21:49:04.678Z,4.98
2023-01-31T21:51:34.417Z,4.95
2023-01-31T21:54:00.681Z,4.96
2023-01-31T21:56:28.129Z,4.95
2023-01-31T21:58:55.194Z,4.89
2023-01-31T22:01:23.092Z,4.89
2023-01-31T22:03:50.776Z,4.88
2023-01-31T22:06:18.832Z,4.85
2023-01-31T22:08:45.158Z,4.83
2023-01-31T22:11:12.666Z,4.80
2023-01-31T22:13:39.211Z,4.81
2023-01-31T22:16:07.270Z,4.79
2023-01-31T22:18:33.688Z,4.77
2023-01-31T22:21:20.295Z,4.79
2023-01-31T22:23:51.313Z,4.79
2023-01-31T22:26:22.574Z,4.77
2023-01-31T22:28:49.199Z,4.74
2023-01-31T22:31:15.534Z,4.71
2023-01-31T22:33:42.347Z,4.73
2023-01-31T22:36:09.747Z,4.73
2023-01-31T22:38:36.085Z,4.71
2023-01-31T22:41:03.776Z,4.71
2023-01-31T22:43:30.975Z,4.73
2023-01-31T22:45:58.458Z,4.71
2023-01-31T22:48:25.430Z,4.73
2023-01-31T22:50:59.077Z,4.75
2023-01-31T22:53:25.921Z,4.71
2023-01-31T22:55:52.256Z,4.73
2023-01-31T22:58:19.771Z,4.74
2023-01-31T23:00:46.810Z,4.71
2023-01-31T23:03:13.502Z,4.73
2023-01-31T23:05:42.879Z,4.74
2023-01-31T23:08:12.655Z,4.77
2023-01-31T23:10:40.014Z,4.75
2023-01-31T23:13:07.047Z,4.72
2023-01-31T23:15:33.820Z,4.73
2023-01-31T23:18:00.148Z,4.67
2023-01-31T23:20:26.702Z,4.64
2023-01-31T23:22:53.960Z,4.67
2023-01-31T23:25:21.223Z,4.70
2023-01-31T23:27:47.768Z,4.65
2023-01-31T23:30:14.871Z,4.67
2023-01-31T23:32:43.041Z,4.68
2023-01-31T23:35:09.780Z,4.70
2023-01-31T23:37:36.732Z,4.70
2023-01-31T23:40:04.237Z,4.72
2023-01-31T23:42:30.559Z,4.78
2023-01-31T23:44:56.848Z,4.76
2023-01-31T23:47:23.228Z,4.78
2023-01-31T23:49:49.463Z,4.83
2023-01-31T23:52:16.054Z,4.82
2023-01-31T23:54:42.375Z,4.83
2023-01-31T23:57:09.126Z,4.81
2023-01-31T23:59:35.816Z,4.82
